createdAt,value
2022-09-15T00:01:10.239Z,11.60
2022-09-15T00:03:37.520Z,11.50
2022-09-15T00:06:04.845Z,11.50
2022-09-15T00:08:32.275Z,11.50
2022-09-15T00:11:06.054Z,11.50
2022-09-15T00:13:34.780Z,11.40
2022-09-15T00:16:02.057Z,11.40
2022-09-15T00:18:29.986Z,11.30
2022-09-15T00:20:57.053Z,11.40
2022-09-15T00:23:23.980Z,11.30
2022-09-15T00:25:52.808Z,11.40
2022-09-15T00:28:21.744Z,11.40
2022-09-15T00:30:51.604Z,11.50
2022-09-15T00:33:19.776Z,11.50
2022-09-15T00:35:49.241Z,11.40
2022-09-15T00:38:17.566Z,11.40
2022-09-15T00:40:56.325Z,11.40
2022-09-15T00:43:45.244Z,11.40
2022-09-15T00:46:12.524Z,11.40
2022-09-15T00:48:44.059Z,11.30
2022-09-15T00:51:14.678Z,11.30
2022-09-15T00:53:42.494Z,11.30
2022-09-15T00:56:12.154Z,11.30
2022-09-15T00:58:55.214Z,11.20
2022-09-15T01:01:26.162Z,11.30
2022-09-15T01:03:53.962Z,11.30
2022-09-15T01:06:30.733Z,11.30
2022-09-15T01:09:06.223Z,11.30
2022-09-15T01:11:33.720Z,11.30
2022-09-15T01:14:02.024Z,11.30
2022-09-15T01:16:53.854Z,11.30
2022-09-15T01:19:30.505Z,11.30
2022-09-15T01:22:17.645Z,11.30
2022-09-15T01:24:56.837Z,11.20
2022-09-15T01:27:42.105Z,11.30
2022-09-15T01:30:17.166Z,11.20
2022-09-15T01:33:05.857Z,11.20
2022-09-15T01:35:49.486Z,11.20
2022-09-15T01:38:24.844Z,11.20
2022-09-15T01:41:02.269Z,11.10
2022-09-15T01:43:30.779Z,11.10
2022-09-15T01:45:59.123Z,11.10
2022-09-15T01:48:27.473Z,11.10
2022-09-15T01:50:59.138Z,11.10
2022-09-15T01:53:27.196Z,11.00
2022-09-15T01:56:09.567Z,11.00
2022-09-15T01:58:38.660Z,11.00
2022-09-15T02:01:14.400Z,11.00
2022-09-15T02:03:57.681Z,11.00
2022-09-15T02:06:43.336Z,10.90
2022-09-15T02:09:20.840Z,10.90
2022-09-15T02:12:10.853Z,10.90
2022-09-15T02:14:52.409Z,10.90
2022-09-15T02:17:20.929Z,10.90
2022-09-15T02:19:56.428Z,10.80
2022-09-15T02:22:30.856Z,10.80
2022-09-15T02:25:03.160Z,10.80
2022-09-15T02:27:34.633Z,10.80
2022-09-15T02:30:11.828Z,10.80
2022-09-15T02:32:47.369Z,10.70
2022-09-15T02:35:17.033Z,10.70
2022-09-15T02:37:45.042Z,10.70
2022-09-15T02:40:12.064Z,10.70
2022-09-15T02:42:39.387Z,10.70
2022-09-15T02:45:06.977Z,10.70
2022-09-15T02:47:33.831Z,10.60
2022-09-15T02:50:01.194Z,10.60
2022-09-15T02:52:28.076Z,10.70
2022-09-15T02:54:54.925Z,10.60
2022-09-15T02:57:21.900Z,10.60
2022-09-15T03:00:07.269Z,10.50
2022-09-15T03:02:34.626Z,10.50
2022-09-15T03:05:01.647Z,10.50
2022-09-15T03:07:28.661Z,10.50
2022-09-15T03:09:55.700Z,10.50
2022-09-15T03:12:22.660Z,10.60
2022-09-15T03:14:50.497Z,10.50
2022-09-15T03:17:18.101Z,10.50
2022-09-15T03:19:45.204Z,10.50
2022-09-15T03:22:12.280Z,10.50
2022-09-15T03:24:39.473Z,10.50
2022-09-15T03:27:06.389Z,10.40
2022-09-15T03:29:33.286Z,10.40
2022-09-15T03:32:00.213Z,10.40
2022-09-15T03:34:27.133Z,10.40
2022-09-15T03:36:54.020Z,10.40
2022-09-15T03:39:20.887Z,10.40
2022-09-15T03:41:47.789Z,10.40
2022-09-15T03:44:15.367Z,10.40
2022-09-15T03:46:42.338Z,10.40
2022-09-15T03:49:09.356Z,10.40
2022-09-15T03:51:36.238Z,10.30
2022-09-15T03:54:03.312Z,10.30
2022-09-15T03:56:33.010Z,10.30
2022-09-15T03:59:05.816Z,10.30
2022-09-15T04:01:33.223Z,10.20
2022-09-15T04:04:00.381Z,10.20
2022-09-15T04:06:27.645Z,10.20
2022-09-15T04:08:55.118Z,10.20
2022-09-15T04:11:23.030Z,10.20
2022-09-15T04:13:50.236Z,10.20
2022-09-15T04:16:19.755Z,10.20
2022-09-15T04:18:47.008Z,10.20
2022-09-15T04:21:17.252Z,10.10
2022-09-15T04:23:44.978Z,10.10
2022-09-15T04:26:19.427Z,10.00
2022-09-15T04:28:46.389Z,10.00
2022-09-15T04:31:15.978Z,10.00
2022-09-15T04:33:44.072Z,10.10
2022-09-15T04:36:19.524Z,10.10
2022-09-15T04:38:46.793Z,10.10
2022-09-15T04:41:14.328Z,10.00
2022-09-15T04:43:43.411Z,10.00
2022-09-15T04:46:12.701Z,10.10
2022-09-15T04:48:39.693Z,10.00
2022-09-15T04:51:09.036Z,10.00
2022-09-15T04:53:36.201Z,10.10
2022-09-15T04:56:05.363Z,10.00
2022-09-15T04:58:40.026Z,10.00
2022-09-15T05:01:15.078Z,10.00
2022-09-15T05:03:42.826Z,10.00
2022-09-15T05:06:12.519Z,10.00
2022-09-15T05:08:40.107Z,10.00
2022-09-15T05:11:10.104Z,10.00
2022-09-15T05:13:38.269Z,10.00
2022-09-15T05:16:12.160Z,10.00
2022-09-15T05:18:40.893Z,10.00
2022-09-15T05:21:09.370Z,10.00
2022-09-15T05:23:37.318Z,10.00
2022-09-15T05:26:06.748Z,10.00
2022-09-15T05:28:36.234Z,9.90
2022-09-15T05:31:11.759Z,9.90
2022-09-15T05:33:38.877Z,9.90
2022-09-15T05:36:07.237Z,9.90
2022-09-15T05:38:34.535Z,9.80
2022-09-15T05:41:10.599Z,9.80
2022-09-15T05:43:39.273Z,9.80
2022-09-15T05:46:07.819Z,9.90
2022-09-15T05:48:35.477Z,9.80
2022-09-15T05:51:02.896Z,9.90
2022-09-15T05:53:31.090Z,9.90
2022-09-15T05:55:59.705Z,9.90
2022-09-15T05:58:27.713Z,9.80
2022-09-15T06:00:55.222Z,9.80
2022-09-15T06:03:27.517Z,9.80
2022-09-15T06:06:01.777Z,9.80
2022-09-15T06:08:43.906Z,9.80
2022-09-15T06:11:16.408Z,9.80
2022-09-15T06:13:44.031Z,9.80
2022-09-15T06:16:18.431Z,9.90
2022-09-15T06:18:46.702Z,9.80
2022-09-15T06:21:14.913Z,9.80
2022-09-15T06:23:43.337Z,9.80
2022-09-15T06:26:17.882Z,9.90
2022-09-15T06:28:52.897Z,9.90
2022-09-15T06:31:20.396Z,9.90
2022-09-15T06:33:51.464Z,10.00
2022-09-15T06:36:20.361Z,10.00
2022-09-15T06:38:48.001Z,10.00
2022-09-15T06:41:16.305Z,10.00
2022-09-15T06:43:43.717Z,10.00
2022-09-15T06:46:13.134Z,10.10
2022-09-15T06:48:41.138Z,10.10
2022-09-15T06:51:10.644Z,10.20
2022-09-15T06:53:38.948Z,10.20
2022-09-15T06:56:10.354Z,10.30
2022-09-15T06:58:39.021Z,10.30
2022-09-15T07:01:14.369Z,10.30
2022-09-15T07:03:43.865Z,10.40
2022-09-15T07:06:12.316Z,10.40
2022-09-15T07:08:40.173Z,10.50
2022-09-15T07:11:08.529Z,10.50
2022-09-15T07:13:35.924Z,10.50
2022-09-15T07:16:04.400Z,10.60
2022-09-15T07:18:32.593Z,10.60
2022-09-15T07:21:11.254Z,10.70
2022-09-15T07:23:38.138Z,10.70
2022-09-15T07:26:06.701Z,10.70
2022-09-15T07:28:34.430Z,10.80
2022-09-15T07:31:01.648Z,10.80
2022-09-15T07:33:28.937Z,10.80
2022-09-15T07:35:55.880Z,10.90
2022-09-15T07:38:22.881Z,10.90
2022-09-15T07:40:49.884Z,10.90
2022-09-15T07:43:16.826Z,11.00
2022-09-15T07:45:43.745Z,11.00
2022-09-15T07:48:14.020Z,11.10
2022-09-15T07:50:40.964Z,11.20
2022-09-15T07:53:07.886Z,11.20
2022-09-15T07:55:34.825Z,11.30
2022-09-15T07:58:02.260Z,11.30
2022-09-15T08:00:29.578Z,11.40
2022-09-15T08:02:57.158Z,11.40
2022-09-15T08:05:28.423Z,11.50
2022-09-15T08:07:56.256Z,11.60
2022-09-15T08:10:26.110Z,11.60
2022-09-15T08:12:53.309Z,11.60
2022-09-15T08:15:21.078Z,11.70
2022-09-15T08:17:47.968Z,11.80
2022-09-15T08:20:14.930Z,11.80
2022-09-15T08:22:42.233Z,11.80
2022-09-15T08:25:09.822Z,11.80
2022-09-15T08:27:36.685Z,11.90
2022-09-15T08:30:04.889Z,11.90
2022-09-15T08:32:31.884Z,12.00
2022-09-15T08:34:58.815Z,12.00
2022-09-15T08:37:25.973Z,12.10
2022-09-15T08:39:52.953Z,12.10
2022-09-15T08:42:21.083Z,12.10
2022-09-15T08:45:02.390Z,12.20
2022-09-15T08:47:41.021Z,12.30
2022-09-15T08:50:20.688Z,12.30
2022-09-15T08:53:13.017Z,12.40
2022-09-15T08:55:56.388Z,12.50
2022-09-15T08:58:26.243Z,12.60
2022-09-15T09:01:06.217Z,12.60
2022-09-15T09:03:45.166Z,12.60
2022-09-15T09:06:26.440Z,12.60
2022-09-15T09:09:11.325Z,12.50
2022-09-15T09:11:58.648Z,12.60
2022-09-15T09:14:40.815Z,12.70
2022-09-15T09:17:13.708Z,12.90
2022-09-15T09:20:02.308Z,12.90
2022-09-15T09:22:36.768Z,12.90
2022-09-15T09:25:21.098Z,12.80
2022-09-15T09:27:52.919Z,12.90
2022-09-15T09:30:22.677Z,13.00
2022-09-15T09:33:23.208Z,13.10
2022-09-15T09:35:52.625Z,13.10
2022-09-15T09:38:27.589Z,13.30
2022-09-15T09:40:57.576Z,13.30
2022-09-15T09:43:29.732Z,13.50
2022-09-15T09:45:56.867Z,13.40
2022-09-15T09:48:26.382Z,13.50
2022-09-15T09:50:55.037Z,13.70
2022-09-15T09:53:33.686Z,13.50
2022-09-15T09:56:15.301Z,13.50
2022-09-15T09:58:42.568Z,13.60
2022-09-15T10:01:16.902Z,13.70
2022-09-15T10:03:45.261Z,13.80
2022-09-15T10:06:23.405Z,13.90
2022-09-15T10:09:05.025Z,14.20
2022-09-15T10:11:42.512Z,14.10
2022-09-15T10:14:19.956Z,14.00
2022-09-15T10:16:58.697Z,13.90
2022-09-15T10:19:27.121Z,13.90
2022-09-15T10:21:54.650Z,13.60
2022-09-15T10:24:27.635Z,13.40
2022-09-15T10:27:34.100Z,13.00
2022-09-15T10:30:21.677Z,12.90
2022-09-15T10:32:48.779Z,12.70
2022-09-15T10:35:20.811Z,12.80
2022-09-15T10:37:56.910Z,12.90
2022-09-15T10:40:58.201Z,13.20
2022-09-15T10:43:30.932Z,13.60
2022-09-15T10:46:37.564Z,14.00
2022-09-15T10:49:34.033Z,14.30
2022-09-15T10:52:19.256Z,14.70
2022-09-15T10:54:59.013Z,14.60
2022-09-15T10:58:03.697Z,14.60
2022-09-15T11:00:44.373Z,14.20
2022-09-15T11:04:00.323Z,13.90
2022-09-15T11:06:46.243Z,13.60
2022-09-15T11:09:28.473Z,13.60
2022-09-15T11:12:07.439Z,13.70
2022-09-15T11:14:58.528Z,13.80
2022-09-15T11:17:36.905Z,14.20
2022-09-15T11:20:18.926Z,14.90
2022-09-15T11:23:05.423Z,15.30
2022-09-15T11:25:35.751Z,15.60
2022-09-15T11:28:25.753Z,15.50
2022-09-15T11:31:04.391Z,15.90
2022-09-15T11:33:50.531Z,15.90
2022-09-15T11:37:01.355Z,15.70
2022-09-15T11:39:35.312Z,15.50
2022-09-15T11:42:17.774Z,15.40
2022-09-15T11:44:46.433Z,15.10
2022-09-15T11:47:24.987Z,15.10
2022-09-15T11:50:10.624Z,15.60
2022-09-15T11:53:01.734Z,15.50
2022-09-15T11:55:53.229Z,16.10
2022-09-15T11:58:34.024Z,16.20
2022-09-15T12:01:16.844Z,15.90
2022-09-15T12:03:53.696Z,16.30
2022-09-15T12:06:24.813Z,16.30
2022-09-15T12:09:01.211Z,16.20
2022-09-15T12:11:31.519Z,16.20
2022-09-15T12:14:00.015Z,15.70
2022-09-15T12:16:29.887Z,15.50
2022-09-15T12:19:05.700Z,15.20
2022-09-15T12:21:54.536Z,15.10
2022-09-15T12:24:36.221Z,15.80
2022-09-15T12:27:03.761Z,16.90
2022-09-15T12:29:42.089Z,18.30
2022-09-15T12:32:26.748Z,19.60
2022-09-15T12:35:03.709Z,18.30
2022-09-15T12:37:52.781Z,18.50
2022-09-15T12:40:40.458Z,17.70
2022-09-15T12:43:13.673Z,18.10
2022-09-15T12:45:42.990Z,18.90
2022-09-15T12:48:14.980Z,19.70
2022-09-15T12:50:43.650Z,20.30
2022-09-15T12:53:18.233Z,20.90
2022-09-15T12:55:55.999Z,20.20
2022-09-15T12:58:37.003Z,18.80
2022-09-15T13:01:19.415Z,18.90
2022-09-15T13:03:47.301Z,19.20
2022-09-15T13:06:19.267Z,18.40
2022-09-15T13:08:51.697Z,18.20
2022-09-15T13:11:34.887Z,17.70
2022-09-15T13:14:07.824Z,18.80
2022-09-15T13:16:40.602Z,18.50
2022-09-15T13:19:15.025Z,18.10
2022-09-15T13:21:47.943Z,17.20
2022-09-15T13:24:20.437Z,16.50
2022-09-15T13:26:55.829Z,15.80
2022-09-15T13:29:24.469Z,15.40
2022-09-15T13:32:04.240Z,15.30
2022-09-15T13:35:04.974Z,15.30
2022-09-15T13:38:21.244Z,15.10
2022-09-15T13:41:18.509Z,15.50
2022-09-15T13:44:23.353Z,17.90
2022-09-15T13:47:08.150Z,19.10
2022-09-15T13:50:12.071Z,19.40
2022-09-15T13:53:06.893Z,18.30
2022-09-15T13:55:39.413Z,16.90
2022-09-15T14:01:03.328Z,15.90
2022-09-15T14:03:41.771Z,16.10
2022-09-15T14:06:22.936Z,16.60
2022-09-15T14:08:55.155Z,17.70
2022-09-15T14:11:28.422Z,18.80
2022-09-15T14:13:56.866Z,19.70
2022-09-15T14:16:27.845Z,21.90
2022-09-15T14:18:57.827Z,23.40
2022-09-15T14:21:27.765Z,24.80
2022-09-15T14:23:57.368Z,25.00
2022-09-15T14:26:29.167Z,22.40
2022-09-15T14:29:02.185Z,20.60
2022-09-15T14:31:38.634Z,20.00
2022-09-15T14:34:14.579Z,19.40
2022-09-15T14:36:41.701Z,18.60
2022-09-15T14:39:20.543Z,17.90
2022-09-15T14:41:48.409Z,16.80
2022-09-15T14:47:25.831Z,15.30
2022-09-15T14:50:21.817Z,16.40
2022-09-15T14:52:52.396Z,18.80
2022-09-15T14:55:28.247Z,20.30
2022-09-15T14:58:03.641Z,21.00
2022-09-15T15:00:37.574Z,22.30
2022-09-15T15:03:21.184Z,22.30
2022-09-15T15:06:27.757Z,20.60
2022-09-15T15:09:00.369Z,18.90
2022-09-15T15:11:29.236Z,17.10
2022-09-15T15:13:57.558Z,16.60
2022-09-15T15:16:27.858Z,16.00
2022-09-15T15:19:01.748Z,15.80
2022-09-15T15:21:43.494Z,15.80
2022-09-15T15:24:20.777Z,16.80
2022-09-15T15:26:49.605Z,16.90
2022-09-15T15:29:38.443Z,18.30
2022-09-15T15:32:10.674Z,18.10
2022-09-15T15:34:38.419Z,17.60
2022-09-15T15:37:24.083Z,17.20
2022-09-15T15:39:51.273Z,16.40
2022-09-15T15:42:18.253Z,16.10
2022-09-15T15:45:09.674Z,15.80
2022-09-15T15:47:37.802Z,15.90
2022-09-15T15:50:23.323Z,15.60
2022-09-15T15:52:51.504Z,15.50
2022-09-15T15:55:20.876Z,15.60
2022-09-15T15:57:53.975Z,15.50
2022-09-15T16:00:23.673Z,15.40
2022-09-15T16:02:52.030Z,15.10
2022-09-15T16:05:20.853Z,15.00
2022-09-15T16:07:50.299Z,15.20
2022-09-15T16:10:21.070Z,16.10
2022-09-15T16:12:48.185Z,16.70
2022-09-15T16:15:20.951Z,17.80
2022-09-15T16:17:49.181Z,18.60
2022-09-15T16:20:16.931Z,19.60
2022-09-15T16:22:43.936Z,19.80
2022-09-15T16:25:35.698Z,18.90
2022-09-15T16:28:04.165Z,18.40
2022-09-15T16:30:32.141Z,18.00
2022-09-15T16:32:59.807Z,17.40
2022-09-15T16:35:30.243Z,16.90
2022-09-15T16:37:57.202Z,16.50
2022-09-15T16:40:24.242Z,16.50
2022-09-15T16:42:51.400Z,16.40
2022-09-15T16:45:35.262Z,16.30
2022-09-15T16:48:05.107Z,16.50
2022-09-15T16:50:31.926Z,16.40
2022-09-15T16:52:59.314Z,16.80
2022-09-15T16:55:39.245Z,17.30
2022-09-15T16:58:07.621Z,17.40
2022-09-15T17:00:38.279Z,17.80
2022-09-15T17:03:06.864Z,17.70
2022-09-15T17:05:48.526Z,17.00
2022-09-15T17:08:17.730Z,16.90
2022-09-15T17:10:45.648Z,16.70
2022-09-15T17:13:17.593Z,16.40
2022-09-15T17:15:46.090Z,16.20
2022-09-15T17:18:15.529Z,15.90
2022-09-15T17:20:47.417Z,15.50
2022-09-15T17:23:23.574Z,15.10
2022-09-15T17:25:53.088Z,14.90
2022-09-15T17:28:22.584Z,14.80
2022-09-15T17:30:58.055Z,14.80
2022-09-15T17:33:26.182Z,14.90
2022-09-15T17:35:53.619Z,14.70
2022-09-15T17:38:22.014Z,14.80
2022-09-15T17:40:50.532Z,14.80
2022-09-15T17:43:20.285Z,14.70
2022-09-15T17:45:48.486Z,14.50
2022-09-15T17:48:15.889Z,14.60
2022-09-15T17:50:43.909Z,14.60
2022-09-15T17:53:22.844Z,14.60
2022-09-15T17:55:57.318Z,14.40
2022-09-15T17:58:26.829Z,14.20
2022-09-15T18:00:54.514Z,14.10
2022-09-15T18:03:29.044Z,14.00
2022-09-15T18:05:58.563Z,13.90
2022-09-15T18:08:26.967Z,13.90
2022-09-15T18:10:54.290Z,13.80
2022-09-15T18:13:27.296Z,13.90
2022-09-15T18:15:54.912Z,13.80
2022-09-15T18:18:24.872Z,13.60
2022-09-15T18:20:53.857Z,13.40
2022-09-15T18:23:26.732Z,13.40
2022-09-15T18:25:53.825Z,13.30
2022-09-15T18:28:20.852Z,13.20
2022-09-15T18:30:49.547Z,13.10
2022-09-15T18:33:17.784Z,13.10
2022-09-15T18:35:45.009Z,13.00
2022-09-15T18:38:12.650Z,12.80
2022-09-15T18:40:44.646Z,12.80
2022-09-15T18:43:12.133Z,12.70
2022-09-15T18:45:42.529Z,12.70
2022-09-15T18:48:12.723Z,12.50
2022-09-15T18:50:41.348Z,12.60
2022-09-15T18:53:08.290Z,12.60
2022-09-15T18:55:35.275Z,12.50
2022-09-15T18:58:02.637Z,12.50
2022-09-15T19:00:30.150Z,12.40
2022-09-15T19:02:58.419Z,12.40
2022-09-15T19:05:26.403Z,12.30
2022-09-15T19:07:53.421Z,12.30
2022-09-15T19:10:20.330Z,12.40
2022-09-15T19:12:47.265Z,12.20
2022-09-15T19:15:15.017Z,12.20
2022-09-15T19:17:42.864Z,12.20
2022-09-15T19:20:12.813Z,12.10
2022-09-15T19:22:40.179Z,12.00
2022-09-15T19:25:08.631Z,12.00
2022-09-15T19:27:35.743Z,12.00
2022-09-15T19:30:02.715Z,11.90
2022-09-15T19:32:29.817Z,12.00
2022-09-15T19:34:56.717Z,12.00
2022-09-15T19:37:23.893Z,11.80
2022-09-15T19:39:50.890Z,11.70
2022-09-15T19:42:17.916Z,11.80
2022-09-15T19:44:45.157Z,11.70
2022-09-15T19:47:12.104Z,11.60
2022-09-15T19:49:38.991Z,11.50
2022-09-15T19:52:06.600Z,11.50
2022-09-15T19:54:34.707Z,11.40
2022-09-15T19:57:02.233Z,11.50
2022-09-15T19:59:31.573Z,11.40
2022-09-15T20:02:00.257Z,11.40
2022-09-15T20:04:28.034Z,11.40
2022-09-15T20:06:54.939Z,11.30
2022-09-15T20:09:22.152Z,11.30
2022-09-15T20:11:49.009Z,11.20
2022-09-15T20:14:16.245Z,11.20
2022-09-15T20:16:43.276Z,11.20
2022-09-15T20:19:13.284Z,11.20
2022-09-15T20:21:56.095Z,11.10
2022-09-15T20:24:24.539Z,11.10
2022-09-15T20:26:51.941Z,11.10
2022-09-15T20:29:20.128Z,11.00
2022-09-15T20:31:47.781Z,11.00
2022-09-15T20:34:14.758Z,11.00
2022-09-15T20:36:41.831Z,10.90
2022-09-15T20:39:13.119Z,11.10
2022-09-15T20:41:41.823Z,11.10
2022-09-15T20:44:09.595Z,11.00
2022-09-15T20:46:37.049Z,10.90
2022-09-15T20:49:04.797Z,11.00
2022-09-15T20:51:33.685Z,11.10
2022-09-15T20:54:03.513Z,11.10
2022-09-15T20:56:32.677Z,11.10
2022-09-15T20:59:00.580Z,11.20
2022-09-15T21:01:38.732Z,11.20
2022-09-15T21:04:07.948Z,11.20
2022-09-15T21:06:35.289Z,11.20
2022-09-15T21:09:02.503Z,11.00
2022-09-15T21:11:30.195Z,11.00
2022-09-15T21:13:57.691Z,10.90
2022-09-15T21:16:27.050Z,10.90
2022-09-15T21:18:55.631Z,10.90
2022-09-15T21:21:24.813Z,10.90
2022-09-15T21:24:01.826Z,10.80
2022-09-15T21:26:31.716Z,10.80
2022-09-15T21:28:58.933Z,10.70
2022-09-15T21:31:30.977Z,10.60
2022-09-15T21:33:58.981Z,10.70
2022-09-15T21:36:30.644Z,10.70
2022-09-15T21:38:59.009Z,10.60
2022-09-15T21:41:29.111Z,10.70
2022-09-15T21:43:58.334Z,10.70
2022-09-15T21:46:28.078Z,10.60
2022-09-15T21:48:56.802Z,10.60
2022-09-15T21:51:25.427Z,10.60
2022-09-15T21:53:56.909Z,10.50
2022-09-15T21:56:25.300Z,10.60
2022-09-15T21:58:52.200Z,10.60
2022-09-15T22:01:21.471Z,10.70
2022-09-15T22:03:51.700Z,10.70
2022-09-15T22:06:20.332Z,10.70
2022-09-15T22:08:47.945Z,10.70
2022-09-15T22:11:15.245Z,10.70
2022-09-15T22:13:44.021Z,10.60
2022-09-15T22:16:13.988Z,10.60
2022-09-15T22:18:42.178Z,10.60
2022-09-15T22:21:26.773Z,10.60
2022-09-15T22:23:59.125Z,10.50
2022-09-15T22:26:28.902Z,10.50
2022-09-15T22:28:56.596Z,10.50
2022-09-15T22:31:24.783Z,10.40
2022-09-15T22:33:52.580Z,10.40
2022-09-15T22:36:29.692Z,10.40
2022-09-15T22:39:05.284Z,10.30
2022-09-15T22:41:35.138Z,10.30
2022-09-15T22:44:02.722Z,10.20
2022-09-15T22:46:29.576Z,10.10
2022-09-15T22:48:56.517Z,10.00
2022-09-15T22:51:23.470Z,10.10
2022-09-15T22:53:54.182Z,10.10
2022-09-15T22:56:21.533Z,10.10
2022-09-15T22:58:49.670Z,10.10
2022-09-15T23:01:22.144Z,10.20
2022-09-15T23:03:56.674Z,10.20
2022-09-15T23:06:25.697Z,10.20
2022-09-15T23:08:54.715Z,10.20
2022-09-15T23:11:21.852Z,10.20
2022-09-15T23:13:49.116Z,10.10
2022-09-15T23:16:17.085Z,10.00
2022-09-15T23:18:44.342Z,10.00
2022-09-15T23:21:14.128Z,10.00
2022-09-15T23:23:43.378Z,10.00
2022-09-15T23:26:11.853Z,9.90
2022-09-15T23:28:41.700Z,10.00
2022-09-15T23:31:11.936Z,9.90
2022-09-15T23:33:39.978Z,9.90
2022-09-15T23:36:09.465Z,9.90
2022-09-15T23:38:41.219Z,9.90
2022-09-15T23:41:09.352Z,9.90
2022-09-15T23:43:36.317Z,9.90
2022-09-15T23:46:03.957Z,9.80
2022-09-15T23:48:32.594Z,9.90
2022-09-15T23:51:00.000Z,9.90
2022-09-15T23:53:27.111Z,9.90
2022-09-15T23:55:54.062Z,9.80
2022-09-15T23:58:20.940Z,9.80
